Time;durP1;ratioP1;P1;durP2;ratioP2;P2;SDS_P1;SDS_P2;PMS_P1;PMS_P2;Temp;Humidity;BMP_temperature;BMP_pressure;BME280_temperature;BME280_humidity;BME280_pressure;Samples;Min_cycle;Max_cycle;Signal;HPM_P1;HPM_P2
2023/09/21 00:04:50;;;;;;;5.32;1.98;;;15.20;99.90;;;;;;5095576;27;21081;-65
2023/09/21 00:07:18;;;;;;;6.80;2.08;;;15.20;99.90;;;;;;5100777;27;20029;-65
2023/09/21 00:09:44;;;;;;;4.22;1.52;;;15.20;99.90;;;;;;5104237;28;20139;-65
2023/09/21 00:12:10;;;;;;;;;;;15.20;99.90;;;;;;5100661;28;20040;-64
2023/09/21 00:14:35;;;;;;;3.43;1.63;;;15.20;99.90;;;;;;5104572;28;19919;-64
2023/09/21 00:17:02;;;;;;;;;;;15.20;99.90;;;;;;5096350;28;20418;-64
2023/09/21 00:19:28;;;;;;;3.65;1.85;;;15.20;99.90;;;;;;5088174;28;19916;-65
2023/09/21 00:21:55;;;;;;;;;;;15.20;99.90;;;;;;5087272;28;20406;-65
2023/09/21 00:24:21;;;;;;;3.00;1.67;;;15.20;99.90;;;;;;5088375;28;19970;-65
2023/09/21 00:26:50;;;;;;;8.00;1.92;;;15.20;99.90;;;;;;5088518;28;20090;-65
2023/09/21 00:29:16;;;;;;;5.13;1.90;;;15.20;99.90;;;;;;5088528;28;20069;-65
2023/09/21 00:31:42;;;;;;;4.47;1.80;;;15.20;99.90;;;;;;5082508;28;20035;-64
2023/09/21 00:34:08;;;;;;;;;;;15.20;99.90;;;;;;5087766;28;20047;-65
2023/09/21 00:36:35;;;;;;;8.35;1.92;;;15.30;99.90;;;;;;5089401;28;19927;-65
2023/09/21 00:39:03;;;;;;;5.47;1.90;;;15.20;99.90;;;;;;5087287;28;20566;-65
2023/09/21 00:41:32;;;;;;;2.85;1.77;;;15.20;99.90;;;;;;5087325;28;20074;-65
2023/09/21 00:43:58;;;;;;;8.02;1.60;;;15.20;99.90;;;;;;5085038;28;20032;-65
2023/09/21 00:46:27;;;;;;;7.45;1.85;;;15.20;99.90;;;;;;5087464;28;20083;-65
2023/09/21 00:48:53;;;;;;;2.75;1.95;;;15.20;99.90;;;;;;5086986;28;20040;-65
2023/09/21 00:51:19;;;;;;;6.00;1.70;;;15.20;99.90;;;;;;5088270;28;20040;-65
2023/09/21 00:53:45;;;;;;;;;;;15.20;99.90;;;;;;5085060;28;20043;-65
2023/09/21 00:56:13;;;;;;;3.55;1.27;;;15.20;99.90;;;;;;5088909;28;19939;-65
2023/09/21 00:58:45;;;;;;;3.50;1.80;;;15.20;99.90;;;;;;5086078;28;20039;-65
2023/09/21 01:01:16;;;;;;;4.28;1.92;;;15.20;99.90;;;;;;5086024;28;20115;-65
2023/09/21 01:03:43;;;;;;;2.75;1.83;;;15.20;99.90;;;;;;5085692;28;20040;-65
2023/09/21 01:06:09;;;;;;;4.97;1.80;;;15.20;99.90;;;;;;5088901;28;20650;-64
2023/09/21 01:08:34;;;;;;;;;;;15.10;99.90;;;;;;5086582;28;20047;-65
2023/09/21 01:11:08;;;;;;;3.72;1.88;;;15.20;99.90;;;;;;5087638;28;19920;-65
2023/09/21 01:13:38;;;;;;;3.38;1.88;;;15.20;99.90;;;;;;5084813;28;20044;-65
2023/09/21 01:16:05;;;;;;;5.13;1.83;;;15.20;99.90;;;;;;5089082;28;20433;-65
2023/09/21 01:18:31;;;;;;;4.60;1.40;;;15.10;99.90;;;;;;5087296;28;20151;-65
2023/09/21 01:21:04;;;;;;;5.63;1.83;;;15.10;99.90;;;;;;5086508;28;20032;-65
2023/09/21 01:23:42;;;;;;;4.72;1.90;;;15.00;99.90;;;;;;5085733;28;20068;-65
2023/09/21 01:26:08;;;;;;;3.72;1.80;;;15.00;99.90;;;;;;5089109;28;20567;-65
2023/09/21 01:28:34;;;;;;;;;;;15.00;99.90;;;;;;5086835;28;20039;-65
2023/09/21 01:31:00;;;;;;;3.97;1.40;;;15.00;99.90;;;;;;5088263;28;19962;-65
2023/09/21 01:33:26;;;;;;;9.02;1.67;;;15.00;99.90;;;;;;5085118;28;20099;-65
2023/09/21 01:35:51;;;;;;;;;;;15.00;99.90;;;;;;5087797;28;20588;-65
2023/09/21 01:38:17;;;;;;;4.20;1.58;;;15.00;99.90;;;;;;5087185;28;20302;-65
2023/09/21 01:40:43;;;;;;;6.57;1.80;;;15.00;99.90;;;;;;5089769;28;20048;-65
2023/09/21 01:43:11;;;;;;;2.70;1.67;;;15.00;99.90;;;;;;5083774;28;20075;-65
2023/09/21 01:45:42;;;;;;;10.60;1.90;;;15.00;99.90;;;;;;5088959;28;20044;-65
2023/09/21 01:48:09;;;;;;;3.58;1.67;;;15.00;99.90;;;;;;5083556;28;20070;-64
2023/09/21 01:50:40;;;;;;;4.05;1.90;;;14.90;99.90;;;;;;5087157;28;20444;-65
2023/09/21 01:53:10;;;;;;;4.88;1.60;;;14.90;99.90;;;;;;5085348;28;20043;-65
2023/09/21 01:55:36;;;;;;;5.40;1.73;;;14.90;99.90;;;;;;5089305;28;20035;-65
2023/09/21 01:58:04;;;;;;;4.35;1.60;;;15.00;99.90;;;;;;5085922;28;20035;-64
2023/09/21 02:00:35;;;;;;;6.53;2.28;;;14.90;99.90;;;;;;5087149;28;20051;-64
2023/09/21 02:03:06;;;;;;;6.63;1.77;;;15.00;99.90;;;;;;5085393;28;20027;-64
2023/09/21 02:05:33;;;;;;;4.38;2.15;;;14.90;99.90;;;;;;5085064;28;20048;-64
2023/09/21 02:07:59;;;;;;;5.35;2.17;;;14.90;99.90;;;;;;5083708;28;20050;-65
2023/09/21 02:10:25;;;;;;;;;;;14.90;99.90;;;;;;5088747;28;20437;-65
2023/09/21 02:12:56;;;;;;;4.93;1.75;;;14.90;99.90;;;;;;5089564;28;19919;-65
2023/09/21 02:15:23;;;;;;;5.72;1.90;;;14.90;99.90;;;;;;5095501;28;20813;-65
2023/09/21 02:17:49;;;;;;;2.15;1.30;;;14.90;99.90;;;;;;5084946;28;20115;-65
2023/09/21 02:20:15;;;;;;;;;;;14.90;99.90;;;;;;5087696;28;20574;-64
2023/09/21 02:26:04;;;;;;;4.70;1.85;;;14.90;99.90;;;;;;5078882;28;20044;-65
2023/09/21 02:28:30;;;;;;;4.00;2.13;;;14.80;99.90;;;;;;5082243;28;20048;-65
2023/09/21 02:30:55;;;;;;;;;;;14.80;99.90;;;;;;5087648;28;20145;-65
2023/09/21 02:33:22;;;;;;;3.33;1.38;;;14.80;99.90;;;;;;5086203;28;20303;-65
2023/09/21 02:35:47;;;;;;;3.30;1.77;;;14.80;99.90;;;;;;5088187;28;20118;-65
2023/09/21 02:38:13;;;;;;;;;;;14.80;99.90;;;;;;5081533;28;20151;-65
2023/09/21 02:40:40;;;;;;;5.90;1.85;;;14.70;99.90;;;;;;5086881;28;19916;-65
2023/09/21 02:43:09;;;;;;;6.25;1.77;;;14.70;99.90;;;;;;5082584;28;20075;-65
2023/09/21 02:45:37;;;;;;;2.80;1.65;;;14.70;99.90;;;;;;5086848;28;20040;-65
2023/09/21 02:48:03;;;;;;;4.75;1.92;;;14.70;99.90;;;;;;5078918;28;20068;-64
2023/09/21 02:50:30;;;;;;;4.32;1.73;;;14.60;99.90;;;;;;5085681;28;20130;-64
2023/09/21 02:53:22;;;;;;;3.22;1.65;;;14.70;99.90;;;;;;5084585;28;20040;-64
2023/09/21 02:55:50;;;;;;;4.38;1.70;;;14.70;99.90;;;;;;5081525;28;20059;-65
2023/09/21 02:58:19;;;;;;;4.72;1.60;;;14.70;99.90;;;;;;5083561;28;20390;-65
2023/09/21 03:00:45;;;;;;;7.55;1.83;;;14.70;99.90;;;;;;5086391;28;20115;-65
2023/09/21 03:03:13;;;;;;;2.80;1.73;;;14.70;99.90;;;;;;5086798;28;20032;-65
2023/09/21 03:05:40;;;;;;;5.13;1.63;;;14.80;99.90;;;;;;5085918;28;20050;-65
2023/09/21 03:08:13;;;;;;;4.63;2.05;;;14.70;99.90;;;;;;5084307;28;20043;-65
2023/09/21 03:10:47;;;;;;;10.52;2.55;;;14.60;99.90;;;;;;5087187;28;20383;-65
2023/09/21 03:13:20;;;;;;;2.35;1.50;;;14.60;99.90;;;;;;5084000;28;20509;-65
2023/09/21 03:15:51;;;;;;;11.38;2.28;;;14.60;99.90;;;;;;5081325;28;20485;-65
2023/09/21 03:18:21;;;;;;;3.55;1.67;;;14.50;99.90;;;;;;5086032;28;20044;-65
2023/09/21 03:20:48;;;;;;;4.55;1.60;;;14.60;99.90;;;;;;5085636;28;20044;-65
2023/09/21 03:23:15;;;;;;;5.70;1.63;;;14.70;99.90;;;;;;5083785;28;20107;-65
2023/09/21 03:25:43;;;;;;;2.95;1.70;;;14.70;99.90;;;;;;5086315;28;20589;-65
2023/09/21 03:28:13;;;;;;;7.25;1.83;;;14.60;99.90;;;;;;5082348;28;20148;-64
2023/09/21 03:30:46;;;;;;;2.85;1.80;;;14.50;99.90;;;;;;5086282;28;20185;-65
2023/09/21 03:33:14;;;;;;;3.45;1.70;;;14.40;99.90;;;;;;5083954;28;20047;-65
2023/09/21 03:35:40;;;;;;;3.95;1.88;;;14.30;99.90;;;;;;5086977;28;20052;-64
2023/09/21 03:38:10;;;;;;;;;;;14.30;99.90;;;;;;5084630;28;20483;-65
2023/09/21 03:40:36;;;;;;;4.65;1.58;;;14.30;99.90;;;;;;5086548;28;20583;-64
2023/09/21 03:43:02;;;;;;;;;;;14.20;99.90;;;;;;5083812;28;20499;-65
2023/09/21 03:45:28;;;;;;;4.05;1.63;;;14.20;99.90;;;;;;5086991;28;19920;-64
2023/09/21 03:47:54;;;;;;;;;;;14.40;99.90;;;;;;5083913;28;20040;-65
2023/09/21 03:50:21;;;;;;;3.75;1.90;;;14.40;99.90;;;;;;5086637;28;20406;-65
2023/09/21 03:52:50;;;;;;;6.65;1.52;;;14.50;99.90;;;;;;5078635;28;20115;-65
2023/09/21 03:55:16;;;;;;;5.38;1.67;;;14.50;99.90;;;;;;5090653;28;20036;-65
2023/09/21 03:57:42;;;;;;;;;;;14.50;99.90;;;;;;5087529;28;20123;-65
2023/09/21 04:03:10;;;;;;;4.18;1.70;;;14.50;99.90;;;;;;5074708;28;20036;-65
2023/09/21 04:05:37;;;;;;;5.22;1.70;;;14.50;99.90;;;;;;5084186;28;20059;-64
2023/09/21 04:08:04;;;;;;;7.68;1.85;;;14.40;99.90;;;;;;5090565;28;20040;-64
2023/09/21 04:10:30;;;;;;;5.57;1.88;;;14.40;99.90;;;;;;5090482;28;20071;-64
2023/09/21 04:12:56;;;;;;;7.28;1.60;;;14.40;99.90;;;;;;5088124;28;20104;-65
2023/09/21 04:15:30;;;;;;;3.15;1.80;;;14.40;99.90;;;;;;5084320;28;20039;-64
2023/09/21 04:17:59;;;;;;;3.35;1.67;;;14.40;99.90;;;;;;5088120;28;20403;-65
2023/09/21 04:20:25;;;;;;;4.80;1.75;;;14.40;99.90;;;;;;5089327;28;20067;-64
2023/09/21 04:22:52;;;;;;;;;;;14.50;99.90;;;;;;5090062;28;20079;-65
2023/09/21 04:25:18;;;;;;;3.50;1.75;;;14.40;99.90;;;;;;5090006;28;19916;-65
2023/09/21 04:27:45;;;;;;;5.47;1.60;;;14.40;99.90;;;;;;5086157;28;20086;-65
2023/09/21 04:30:21;;;;;;;3.60;1.55;;;14.40;99.90;;;;;;5089592;28;20051;-65
2023/09/21 04:32:47;;;;;;;2.22;1.50;;;14.40;99.90;;;;;;5087302;28;20058;-65
2023/09/21 04:35:15;;;;;;;4.50;1.58;;;14.30;99.90;;;;;;5090260;28;20076;-65
2023/09/21 04:37:44;;;;;;;3.95;1.67;;;14.30;99.90;;;;;;5091795;28;20060;-65
2023/09/21 04:40:11;;;;;;;3.28;1.60;;;14.30;99.90;;;;;;5093238;28;20130;-65
2023/09/21 04:42:41;;;;;;;3.30;1.67;;;14.20;99.90;;;;;;5085363;28;20047;-65
2023/09/21 04:45:09;;;;;;;11.48;2.38;;;14.20;99.90;;;;;;5090051;28;20430;-65
2023/09/21 04:47:39;;;;;;;2.47;1.50;;;14.20;99.90;;;;;;5085822;28;20479;-64
2023/09/21 04:50:05;;;;;;;7.07;1.67;;;14.20;99.90;;;;;;5089830;28;20123;-64
2023/09/21 04:52:34;;;;;;;6.18;1.92;;;14.20;99.90;;;;;;5091404;28;20040;-65
2023/09/21 04:54:59;;;;;;;8.50;1.73;;;14.30;99.90;;;;;;5085934;28;20044;-65
2023/09/21 04:57:28;;;;;;;;;;;14.30;99.90;;;;;;5085903;28;20059;-64
2023/09/21 04:59:55;;;;;;;5.20;1.75;;;14.30;99.90;;;;;;5089614;28;19916;-65
2023/09/21 05:02:21;;;;;;;3.83;1.38;;;14.30;99.90;;;;;;5083108;28;20047;-65
2023/09/21 05:04:47;;;;;;;;;;;14.30;99.90;;;;;;5088599;28;20399;-65
2023/09/21 05:07:14;;;;;;;7.55;1.92;;;14.30;99.90;;;;;;5086737;28;19930;-65
2023/09/21 05:09:40;;;;;;;13.98;2.53;;;14.40;99.90;;;;;;5088694;28;20064;-64
2023/09/21 05:12:06;;;;;;;3.17;1.73;;;14.40;99.90;;;;;;5085016;28;20110;-64
2023/09/21 05:14:32;;;;;;;;;;;14.40;99.90;;;;;;5090104;28;20517;-65
2023/09/21 05:16:58;;;;;;;4.40;2.28;;;14.40;99.90;;;;;;5086448;28;19924;-65
2023/09/21 05:19:25;;;;;;;4.15;1.95;;;14.40;99.90;;;;;;5080616;28;20115;-65
2023/09/21 05:21:51;;;;;;;3.83;2.00;;;14.50;99.90;;;;;;5080187;28;20028;-66
2023/09/21 05:24:17;;;;;;;4.38;1.65;;;14.50;99.90;;;;;;5083188;28;20044;-65
2023/09/21 05:26:43;;;;;;;;;;;14.50;99.90;;;;;;5088959;28;20168;-64
2023/09/21 05:29:09;;;;;;;2.83;1.50;;;14.60;99.90;;;;;;5086398;28;19923;-64
2023/09/21 05:31:35;;;;;;;;;;;14.70;99.90;;;;;;5087475;28;20044;-64
2023/09/21 05:34:02;;;;;;;5.78;1.25;;;14.70;99.90;;;;;;5082596;28;20349;-65
2023/09/21 05:36:29;;;;;;;9.57;2.03;;;14.70;99.90;;;;;;5089259;28;20419;-64
2023/09/21 05:38:55;;;;;;;1.88;1.40;;;14.70;99.90;;;;;;5081320;28;20044;-64
2023/09/21 05:41:21;;;;;;;7.10;1.77;;;14.70;99.90;;;;;;5081110;28;20041;-64
2023/09/21 05:43:47;;;;;;;;;;;14.70;99.90;;;;;;5080466;28;20071;-64
2023/09/21 05:46:12;;;;;;;2.72;1.40;;;14.80;99.90;;;;;;5086280;28;19923;-64
2023/09/21 05:48:38;;;;;;;4.90;1.88;;;14.80;99.90;;;;;;5084924;28;20048;-64
2023/09/21 05:51:04;;;;;;;3.42;2.25;;;14.90;99.90;;;;;;5088208;28;20445;-64
2023/09/21 05:53:31;;;;;;;5.07;1.95;;;15.00;99.90;;;;;;5083343;28;20539;-64
2023/09/21 05:55:57;;;;;;;5.15;1.77;;;15.10;99.90;;;;;;5086842;28;20039;-64
2023/09/21 05:58:24;;;;;;;3.53;1.90;;;15.20;99.90;;;;;;5087368;28;20054;-64
2023/09/21 06:00:49;;;;;;;3.47;1.80;;;15.30;99.90;;;;;;5088670;28;20035;-65
2023/09/21 06:03:15;;;;;;;;;;;15.30;99.90;;;;;;5088924;28;20058;-65
2023/09/21 06:05:45;;;;;;;3.90;1.90;;;15.40;99.90;;;;;;5090982;28;19928;-65
2023/09/21 06:08:11;;;;;;;4.72;2.45;;;15.50;99.90;;;;;;5086323;28;20093;-64
2023/09/21 06:10:37;;;;;;;;;;;15.50;99.90;;;;;;5090044;28;20040;-65
2023/09/21 06:13:07;;;;;;;4.28;2.00;;;15.60;99.90;;;;;;5080813;28;19923;-64
2023/09/21 06:15:33;;;;;;;4.15;2.05;;;15.70;99.90;;;;;;5083087;28;20786;-64
2023/09/21 06:17:58;;;;;;;;;;;15.80;99.90;;;;;;5086619;28;20036;-64
2023/09/21 06:20:26;;;;;;;4.43;2.03;;;15.80;99.90;;;;;;5089778;28;19916;-65
2023/09/21 06:22:52;;;;;;;5.00;2.53;;;15.90;99.90;;;;;;5086315;28;20143;-64
2023/09/21 06:25:20;;;;;;;;;;;16.00;99.90;;;;;;5086513;28;20139;-64
2023/09/21 06:27:46;;;;;;;5.13;2.05;;;16.00;99.90;;;;;;5083235;28;19977;-64
2023/09/21 06:30:12;;;;;;;3.90;2.00;;;16.00;99.90;;;;;;5082848;28;20768;-64
2023/09/21 06:32:39;;;;;;;3.38;1.77;;;16.00;99.90;;;;;;5088182;28;20040;-64
2023/09/21 06:35:06;;;;;;;4.80;2.25;;;16.00;99.90;;;;;;5095338;28;20299;-65
2023/09/21 06:37:33;;;;;;;6.75;1.75;;;16.00;99.90;;;;;;5084550;28;20442;-64
2023/09/21 06:40:00;;;;;;;3.95;1.90;;;16.10;99.90;;;;;;5079890;28;20054;-65
2023/09/21 06:42:26;;;;;;;4.47;2.00;;;16.10;99.90;;;;;;5088517;28;20051;-64
2023/09/21 06:44:54;;;;;;;3.58;1.88;;;16.20;99.90;;;;;;5090836;28;20127;-64
2023/09/21 06:47:22;;;;;;;3.60;1.85;;;16.30;99.90;;;;;;5084734;28;20070;-66
2023/09/21 06:49:50;;;;;;;6.07;1.60;;;16.50;99.90;;;;;;5088237;28;20036;-66
2023/09/21 06:52:17;;;;;;;5.63;1.73;;;16.60;99.90;;;;;;5082906;28;20108;-66
2023/09/21 06:54:44;;;;;;;3.45;1.77;;;16.70;99.90;;;;;;5087450;28;20368;-67
2023/09/21 06:57:10;;;;;;;3.92;2.00;;;16.80;99.90;;;;;;5080739;28;20036;-66
2023/09/21 06:59:36;;;;;;;;;;;16.90;99.90;;;;;;5089352;28;20054;-66
2023/09/21 07:02:03;;;;;;;2.88;1.67;;;16.90;99.90;;;;;;5085258;28;19945;-66
2023/09/21 07:04:33;;;;;;;4.35;2.28;;;16.90;99.90;;;;;;5087240;28;20534;-65
2023/09/21 07:07:02;;;;;;;3.72;1.73;;;17.00;99.90;;;;;;5086236;28;20733;-64
2023/09/21 07:09:28;;;;;;;3.63;1.90;;;17.10;99.90;;;;;;5087560;28;20044;-63
2023/09/21 07:11:53;;;;;;;;;;;17.10;99.90;;;;;;5087704;28;20035;-64
2023/09/21 07:14:19;;;;;;;3.10;1.80;;;17.20;99.90;;;;;;5082004;28;20387;-64
2023/09/21 07:16:45;;;;;;;4.97;1.80;;;17.20;99.90;;;;;;5081234;28;20040;-64
2023/09/21 07:19:11;;;;;;;;;;;17.30;99.90;;;;;;5081002;28;20040;-64
2023/09/21 07:21:37;;;;;;;2.33;1.73;;;17.30;99.90;;;;;;5086395;28;20010;-64
2023/09/21 07:24:05;;;;;;;;;;;17.30;99.90;;;;;;5084349;28;20127;-65
2023/09/21 07:26:31;;;;;;;2.70;1.50;;;17.40;99.90;;;;;;5078179;28;19920;-65
2023/09/21 07:28:57;;;;;;;;;;;17.50;99.90;;;;;;5088024;28;20101;-64
2023/09/21 07:31:22;;;;;;;4.82;1.63;;;17.50;99.90;;;;;;5079742;28;19920;-64
2023/09/21 07:33:48;;;;;;;;;;;17.50;99.90;;;;;;5089520;28;20453;-63
2023/09/21 07:36:14;;;;;;;2.85;1.73;;;17.60;99.90;;;;;;5086536;28;19927;-64
2023/09/21 07:38:40;;;;;;;5.45;1.80;;;17.60;99.90;;;;;;5073956;28;20072;-64
2023/09/21 07:41:06;;;;;;;;;;;17.70;99.90;;;;;;5090637;28;20502;-64
2023/09/21 07:43:33;;;;;;;3.50;1.58;;;17.70;99.90;;;;;;5086968;28;20318;-64
2023/09/21 07:45:59;;;;;;;3.55;1.92;;;17.80;99.90;;;;;;5091038;28;20457;-64
2023/09/21 07:48:28;;;;;;;6.30;2.00;;;17.90;99.90;;;;;;5085028;28;20041;-65
2023/09/21 07:50:56;;;;;;;4.30;1.77;;;17.90;99.90;;;;;;5091441;28;20032;-64
2023/09/21 07:53:22;;;;;;;6.60;1.80;;;17.90;99.90;;;;;;5087080;28;20052;-65
2023/09/21 07:55:58;;;;;;;5.30;1.90;;;18.00;99.90;;;;;;5071510;28;20048;-65
2023/09/21 07:58:23;;;;;;;2.43;1.50;;;18.10;99.90;;;;;;5089974;28;20051;-66
2023/09/21 08:00:49;;;;;;;4.40;1.42;;;18.10;99.90;;;;;;5086964;28;20404;-65
2023/09/21 08:03:15;;;;;;;4.60;1.60;;;18.20;99.90;;;;;;5089237;28;20047;-65
2023/09/21 08:05:42;;;;;;;3.95;1.75;;;18.20;99.90;;;;;;5092524;28;20087;-65
2023/09/21 08:08:07;;;;;;;3.13;2.03;;;18.30;99.90;;;;;;5088639;28;20040;-65
2023/09/21 08:10:33;;;;;;;;;;;18.50;99.90;;;;;;5094599;28;20040;-65
2023/09/21 08:13:01;;;;;;;4.95;1.63;;;18.50;99.90;;;;;;5087660;28;19916;-66
2023/09/21 08:15:26;;;;;;;3.45;1.77;;;19.10;99.90;;;;;;5094581;28;20055;-66
2023/09/21 08:17:53;;;;;;;;;;;20.00;99.90;;;;;;5090426;28;20043;-61
2023/09/21 08:20:22;;;;;;;3.95;1.70;;;21.20;99.90;;;;;;5086608;28;20725;-61
2023/09/21 08:22:49;;;;;;;5.75;2.22;;;21.30;99.90;;;;;;5089393;28;20699;-63
2023/09/21 08:25:15;;;;;;;5.63;2.30;;;21.00;99.90;;;;;;5093853;28;20127;-63
2023/09/21 08:27:40;;;;;;;;;;;20.40;99.90;;;;;;5088447;28;20637;-64
2023/09/21 08:30:08;;;;;;;3.35;2.00;;;19.90;99.90;;;;;;5088764;28;19920;-63
2023/09/21 08:32:34;;;;;;;6.50;3.03;;;19.60;99.90;;;;;;5082902;28;20042;-63
2023/09/21 08:34:59;;;;;;;;;;;19.40;99.90;;;;;;5091314;28;20048;-63
2023/09/21 08:37:25;;;;;;;7.60;1.92;;;19.30;99.90;;;;;;5084976;28;20465;-64
2023/09/21 08:39:51;;;;;;;7.00;1.75;;;19.20;99.90;;;;;;5086077;28;20040;-64
2023/09/21 08:42:16;;;;;;;;;;;19.20;99.90;;;;;;5082872;28;20057;-64
2023/09/21 08:44:44;;;;;;;4.75;1.80;;;19.30;99.90;;;;;;5088870;28;20040;-64
2023/09/21 08:47:14;;;;;;;5.00;1.85;;;19.40;99.90;;;;;;5096132;28;20271;-64
2023/09/21 08:49:46;;;;;;;4.85;2.28;;;19.40;99.90;;;;;;5093128;28;20031;-64
2023/09/21 08:52:15;;;;;;;4.15;1.67;;;19.50;99.90;;;;;;5088990;28;20066;-64
2023/09/21 08:54:44;;;;;;;4.57;1.63;;;19.70;99.90;;;;;;5093984;28;20052;-64
2023/09/21 08:57:11;;;;;;;4.93;2.58;;;19.90;99.90;;;;;;5088534;28;20046;-64
2023/09/21 08:59:41;;;;;;;3.83;1.90;;;20.10;99.90;;;;;;5089917;28;20094;-64
2023/09/21 09:02:17;;;;;;;4.10;1.90;;;20.10;99.90;;;;;;5084173;28;20592;-64
2023/09/21 09:04:43;;;;;;;2.42;1.60;;;20.30;99.90;;;;;;5093365;28;20055;-64
2023/09/21 09:07:11;;;;;;;4.22;1.58;;;20.30;99.90;;;;;;5088086;28;20040;-64
2023/09/21 09:09:39;;;;;;;9.43;1.60;;;20.40;99.90;;;;;;5089719;28;20051;-64
2023/09/21 09:12:19;;;;;;;3.58;1.70;;;20.50;99.90;;;;;;5089796;28;20111;-64
2023/09/21 09:14:45;;;;;;;5.25;1.33;;;20.60;99.90;;;;;;5089428;28;20036;-64
2023/09/21 09:17:15;;;;;;;2.85;1.60;;;20.80;99.90;;;;;;5087272;28;20047;-64
2023/09/21 09:19:40;;;;;;;4.55;1.98;;;20.80;99.90;;;;;;5088359;28;20039;-64
2023/09/21 09:22:06;;;;;;;3.42;1.65;;;20.50;99.90;;;;;;5086412;28;20043;-64
2023/09/21 09:24:33;;;;;;;4.88;1.63;;;20.50;99.90;;;;;;5089705;28;20036;-65
2023/09/21 09:26:59;;;;;;;7.18;1.80;;;20.50;99.90;;;;;;5088000;28;20052;-63
2023/09/21 09:29:26;;;;;;;2.45;1.70;;;20.70;99.90;;;;;;5089204;28;20665;-64
2023/09/21 09:31:52;;;;;;;2.50;1.58;;;21.00;99.90;;;;;;5085944;28;20151;-64
2023/09/21 09:34:18;;;;;;;4.80;1.75;;;21.20;99.90;;;;;;5088168;28;20162;-64
2023/09/21 09:36:50;;;;;;;4.72;1.63;;;21.20;99.90;;;;;;5088433;28;20062;-64
2023/09/21 09:39:15;;;;;;;5.40;1.60;;;21.30;99.90;;;;;;5093122;28;20048;-64
2023/09/21 09:41:41;;;;;;;4.13;1.60;;;21.40;99.90;;;;;;5088424;28;20415;-64
2023/09/21 09:44:08;;;;;;;4.90;1.90;;;21.50;99.90;;;;;;5088104;28;20047;-64
2023/09/21 09:46:39;;;;;;;6.07;2.05;;;21.40;99.90;;;;;;5087633;28;20226;-64
2023/09/21 09:49:06;;;;;;;8.63;1.63;;;21.60;99.90;;;;;;5086138;28;20047;-64
2023/09/21 09:51:40;;;;;;;8.45;1.38;;;21.60;99.90;;;;;;5085643;28;20514;-64
2023/09/21 09:54:11;;;;;;;2.08;1.55;;;21.60;99.90;;;;;;5089460;28;20504;-64
2023/09/21 09:56:44;;;;;;;4.05;1.80;;;21.30;99.90;;;;;;5089277;28;20074;-64
2023/09/21 09:59:11;;;;;;;3.72;1.63;;;21.10;99.90;;;;;;5086892;28;20066;-64
2023/09/21 10:01:41;;;;;;;3.85;1.70;;;20.90;99.90;;;;;;5087933;28;20459;-63
2023/09/21 10:04:08;;;;;;;3.53;1.52;;;20.70;99.90;;;;;;5089044;28;20055;-63
2023/09/21 10:06:37;;;;;;;3.40;1.85;;;20.70;99.90;;;;;;5089069;28;20048;-64
2023/09/21 10:09:09;;;;;;;5.28;1.55;;;20.70;99.90;;;;;;5088659;28;20040;-64
2023/09/21 10:11:36;;;;;;;2.80;1.58;;;20.60;99.90;;;;;;5087049;28;20070;-64
2023/09/21 10:14:03;;;;;;;6.72;1.80;;;20.30;99.90;;;;;;5092020;28;20566;-63
2023/09/21 10:16:31;;;;;;;4.05;1.73;;;20.20;99.90;;;;;;5095501;28;20054;-64
2023/09/21 10:19:00;;;;;;;7.90;2.13;;;20.10;99.90;;;;;;5086814;28;20130;-65
2023/09/21 10:21:31;;;;;;;4.15;1.80;;;20.10;99.90;;;;;;5091447;28;20126;-63
2023/09/21 10:24:06;;;;;;;4.85;1.75;;;20.00;99.90;;;;;;5087994;28;20122;-64
2023/09/21 10:26:38;;;;;;;4.50;1.83;;;20.00;99.90;;;;;;5086131;28;20106;-63
2023/09/21 10:29:06;;;;;;;6.25;1.95;;;19.90;99.90;;;;;;5086668;28;20060;-64
2023/09/21 10:31:33;;;;;;;6.90;2.15;;;19.90;99.90;;;;;;5090960;28;20044;-64
2023/09/21 10:33:59;;;;;;;4.93;2.05;;;20.00;99.90;;;;;;5087594;28;20479;-64
2023/09/21 10:36:29;;;;;;;3.97;1.88;;;19.90;99.90;;;;;;5088073;28;20047;-65
2023/09/21 10:39:10;;;;;;;6.65;1.73;;;19.90;99.90;;;;;;5086013;28;20044;-64
2023/09/21 10:41:42;;;;;;;4.38;1.67;;;19.90;99.90;;;;;;5086120;28;20109;-64
2023/09/21 10:44:08;;;;;;;3.70;1.83;;;19.90;99.90;;;;;;5088651;28;20040;-64
2023/09/21 10:46:35;;;;;;;4.88;2.00;;;19.80;99.90;;;;;;5092423;28;20503;-64
2023/09/21 10:49:03;;;;;;;6.43;2.00;;;19.70;99.90;;;;;;5084719;28;20043;-64
2023/09/21 10:51:33;;;;;;;3.25;1.80;;;19.70;99.90;;;;;;5087128;28;20086;-64
2023/09/21 10:54:00;;;;;;;4.53;1.85;;;19.70;99.90;;;;;;5084827;28;20101;-64
2023/09/21 10:56:26;;;;;;;2.80;1.67;;;19.60;99.90;;;;;;5087805;28;20054;-65
2023/09/21 10:58:52;;;;;;;5.18;2.15;;;19.60;99.90;;;;;;5085679;28;20036;-64
2023/09/21 11:01:19;;;;;;;5.32;1.85;;;19.60;99.90;;;;;;5085795;28;20123;-64
2023/09/21 11:03:48;;;;;;;5.75;1.95;;;19.60;99.90;;;;;;5084153;28;20040;-64
2023/09/21 11:06:17;;;;;;;7.68;2.17;;;19.60;99.90;;;;;;5091797;28;20787;-64
2023/09/21 11:08:49;;;;;;;4.18;1.90;;;19.70;99.90;;;;;;5084943;28;20051;-64
2023/09/21 11:11:16;;;;;;;6.03;2.20;;;19.70;99.90;;;;;;5085854;28;20040;-64
2023/09/21 11:13:42;;;;;;;4.55;2.00;;;19.70;99.90;;;;;;5084662;28;20047;-64
2023/09/21 11:16:09;;;;;;;5.40;1.42;;;19.80;99.90;;;;;;5087925;28;20042;-65
2023/09/21 11:18:35;;;;;;;2.35;1.58;;;19.80;99.90;;;;;;5086807;28;20093;-64
2023/09/21 11:21:03;;;;;;;4.38;2.10;;;19.80;99.90;;;;;;5086389;28;20047;-64
2023/09/21 11:23:31;;;;;;;2.60;1.63;;;19.80;99.90;;;;;;5086894;28;20115;-64
2023/09/21 11:26:00;;;;;;;4.60;1.83;;;19.80;99.90;;;;;;5087900;28;20036;-64
2023/09/21 11:28:27;;;;;;;5.28;2.40;;;19.80;99.90;;;;;;5084564;28;20109;-64
2023/09/21 11:30:54;;;;;;;4.95;1.88;;;19.70;99.90;;;;;;5092592;28;20111;-64
2023/09/21 11:33:21;;;;;;;4.50;1.52;;;19.70;99.90;;;;;;5089024;28;20403;-64
2023/09/21 11:35:47;;;;;;;3.40;1.52;;;19.70;99.90;;;;;;5081535;28;20046;-64
2023/09/21 11:38:14;;;;;;;;;;;19.60;99.90;;;;;;5090649;28;20405;-65
2023/09/21 11:40:40;;;;;;;7.13;2.03;;;19.60;99.90;;;;;;5087359;28;19916;-64
2023/09/21 11:43:13;;;;;;;3.17;1.77;;;19.60;99.90;;;;;;5083845;28;20365;-64
2023/09/21 11:45:38;;;;;;;2.38;1.55;;;19.60;99.90;;;;;;5093037;28;20079;-65
2023/09/21 11:48:05;;;;;;;;;;;19.60;99.90;;;;;;5082357;28;20064;-64
2023/09/21 11:50:33;;;;;;;5.80;2.08;;;19.50;99.90;;;;;;5093649;28;19942;-64
2023/09/21 11:53:01;;;;;;;3.65;1.67;;;19.60;99.90;;;;;;5083647;28;20052;-64
2023/09/21 11:55:28;;;;;;;3.35;1.60;;;19.60;99.90;;;;;;5087632;28;20571;-64
2023/09/21 11:58:11;;;;;;;4.53;1.70;;;19.60;99.90;;;;;;5083905;28;20048;-64
2023/09/21 12:00:45;;;;;;;4.25;2.13;;;19.60;99.90;;;;;;5086024;28;20044;-64
2023/09/21 12:03:16;;;;;;;4.40;1.80;;;19.60;99.90;;;;;;5088233;28;20036;-64
2023/09/21 12:05:45;;;;;;;3.95;2.03;;;19.70;99.90;;;;;;5090301;28;20036;-64
2023/09/21 12:08:13;;;;;;;6.45;1.60;;;19.70;99.90;;;;;;5086215;28;20087;-65
2023/09/21 12:10:45;;;;;;;7.65;1.60;;;19.70;99.90;;;;;;5089656;28;20032;-64
2023/09/21 12:13:11;;;;;;;2.70;1.83;;;19.70;99.90;;;;;;5088488;28;20503;-64
2023/09/21 12:15:41;;;;;;;5.25;1.90;;;19.70;99.90;;;;;;5095143;28;20556;-64
2023/09/21 12:18:10;;;;;;;3.55;1.65;;;19.70;99.90;;;;;;5087387;28;20032;-64
2023/09/21 12:20:36;;;;;;;5.00;2.40;;;19.70;99.90;;;;;;5088433;28;20032;-64
2023/09/21 12:23:05;;;;;;;3.38;2.10;;;19.60;99.90;;;;;;5087975;28;20032;-64
2023/09/21 12:25:32;;;;;;;3.55;2.20;;;19.60;99.90;;;;;;5093060;28;20044;-65
2023/09/21 12:27:57;;;;;;;5.90;2.53;;;19.60;99.90;;;;;;5092405;28;20036;-64
2023/09/21 12:30:23;;;;;;;;;;;19.50;99.90;;;;;;5097024;28;20058;-64
2023/09/21 12:32:49;;;;;;;4.63;2.58;;;19.50;99.90;;;;;;5090710;28;20496;-64
2023/09/21 12:35:17;;;;;;;4.93;1.98;;;19.40;99.90;;;;;;5089958;28;20058;-63
2023/09/21 12:37:44;;;;;;;6.63;2.10;;;19.20;99.90;;;;;;5087272;28;20036;-64
2023/09/21 12:40:14;;;;;;;6.00;2.47;;;19.20;99.90;;;;;;5091286;28;20117;-64
2023/09/21 12:42:42;;;;;;;8.07;2.38;;;19.20;99.90;;;;;;5086330;28;20151;-64
2023/09/21 12:45:12;;;;;;;6.03;2.50;;;19.10;99.90;;;;;;5096605;28;20130;-64
2023/09/21 12:47:39;;;;;;;4.22;2.63;;;19.10;99.90;;;;;;5088695;28;20051;-64
2023/09/21 12:50:06;;;;;;;6.75;2.75;;;19.00;99.90;;;;;;5094134;28;20115;-64
2023/09/21 12:52:33;;;;;;;6.68;2.20;;;19.00;99.90;;;;;;5086362;28;20394;-64
2023/09/21 12:55:00;;;;;;;5.75;2.22;;;19.00;99.90;;;;;;5090716;28;20043;-65
2023/09/21 12:57:27;;;;;;;4.68;2.15;;;19.00;99.90;;;;;;5085603;28;20908;-64
2023/09/21 12:59:54;;;;;;;7.35;2.50;;;19.00;99.90;;;;;;5089396;28;20411;-65
2023/09/21 13:02:25;;;;;;;4.45;2.60;;;19.00;99.90;;;;;;5087333;28;20148;-64
2023/09/21 13:04:55;;;;;;;5.70;2.45;;;19.00;99.90;;;;;;5088168;28;20059;-64
2023/09/21 13:07:24;;;;;;;3.30;2.30;;;19.10;99.90;;;;;;5085762;28;20078;-65
2023/09/21 13:09:50;;;;;;;5.82;2.42;;;19.30;99.90;;;;;;5090113;28;20463;-64